Naples, Idaho
Current Conditions -  °F | °C
As of 4:55 PM on Wednesday 17 Dec 2014 (Local Time) from K65S Reporting Station
Unknown Precip Unknown Precip  
Wind Chill: 32°   Ceiling: 3800
Heat Index: 32°   Visibility: 10mi
Dew Point: 30°   Wind: 0mph
Humidity: 93%   Direction: NA
Pressure: 29.95"   Gusts: NA
Location:  48.57°N, 116.39°W
Report Text: K65S 180055Z AUTO 00000KT 10SM UP BKN038 BKN049 OVC060 00/M01 A2995 RMK AO2
Loading
Personal Weather Stations






























Interactive Weather Map New forecast layout! Learn more

10-Day Weather Forecast

Advertisements
Track Severe Weather on mobile